createdAt,value
2019-04-26T00:01:50.239Z,28.60
2019-04-26T00:04:23.697Z,24.43
2019-04-26T00:06:53.549Z,24.70
2019-04-26T00:09:27.507Z,29.30
2019-04-26T00:12:19.069Z,28.77
2019-04-26T00:15:12.074Z,27.47
2019-04-26T00:17:48.174Z,25.87
2019-04-26T00:20:19.031Z,27.70
2019-04-26T00:22:49.154Z,28.40
2019-04-26T00:25:18.720Z,26.07
2019-04-26T00:27:48.877Z,29.90
2019-04-26T00:30:19.151Z,28.03
2019-04-26T00:32:48.985Z,29.80
2019-04-26T00:35:18.428Z,28.00
2019-04-26T00:37:59.780Z,29.00
2019-04-26T00:40:29.555Z,25.90
2019-04-26T00:43:00.775Z,27.80
2019-04-26T00:45:33.424Z,25.30
2019-04-26T00:48:04.949Z,26.63
2019-04-26T00:50:36.029Z,30.63
2019-04-26T00:53:06.567Z,25.83
2019-04-26T00:55:37.476Z,28.87
2019-04-26T00:58:09.909Z,27.03
2019-04-26T01:00:39.383Z,26.90
2019-04-26T01:03:08.958Z,26.23
2019-04-26T01:05:42.454Z,24.50
2019-04-26T01:08:12.334Z,27.40
2019-04-26T01:10:42.445Z,27.90
2019-04-26T01:13:12.004Z,29.30
2019-04-26T01:15:45.351Z,29.07
2019-04-26T01:18:16.906Z,31.87
2019-04-26T01:20:50.874Z,28.77
2019-04-26T01:23:23.605Z,27.10
2019-04-26T01:26:13.768Z,25.03
2019-04-26T01:28:53.871Z,24.60
2019-04-26T01:31:24.414Z,24.10
2019-04-26T01:33:54.394Z,24.87
2019-04-26T01:36:26.493Z,26.17
2019-04-26T01:38:59.470Z,22.90
2019-04-26T01:41:38.417Z,27.37
2019-04-26T01:44:14.498Z,23.40
2019-04-26T01:46:47.456Z,26.97
2019-04-26T01:49:20.871Z,22.60
2019-04-26T01:52:04.847Z,24.47
2019-04-26T01:54:40.252Z,28.80
2019-04-26T01:57:10.110Z,22.90
2019-04-26T01:59:43.073Z,25.00
2019-04-26T02:02:27.789Z,26.30
2019-04-26T02:05:01.206Z,30.97
2019-04-26T02:07:41.746Z,25.57
2019-04-26T02:10:13.262Z,28.43
2019-04-26T02:12:47.582Z,24.80
2019-04-26T02:15:20.445Z,24.43
2019-04-26T02:17:52.142Z,25.00
2019-04-26T02:21:19.637Z,27.53
2019-04-26T02:24:09.358Z,27.03
2019-04-26T02:26:42.151Z,25.60
2019-04-26T02:29:16.851Z,25.47
2019-04-26T02:31:52.857Z,31.50
2019-04-26T02:34:23.007Z,27.67
2019-04-26T02:36:58.455Z,28.90
2019-04-26T02:39:32.076Z,26.83
2019-04-26T02:42:05.589Z,30.03
2019-04-26T02:44:48.635Z,30.53
2019-04-26T02:47:50.746Z,27.00
2019-04-26T02:50:28.302Z,28.33
2019-04-26T02:53:23.489Z,28.93
2019-04-26T02:56:30.306Z,29.87
2019-04-26T02:59:41.779Z,33.77
2019-04-26T03:02:37.289Z,28.90
2019-04-26T03:05:09.970Z,30.13
2019-04-26T03:08:21.028Z,31.73
2019-04-26T03:11:11.114Z,33.33
2019-04-26T03:14:02.870Z,31.47
2019-04-26T03:16:54.387Z,32.30
2019-04-26T03:19:38.166Z,31.33
2019-04-26T03:22:58.341Z,29.53
2019-04-26T03:25:44.974Z,30.27
2019-04-26T03:29:14.065Z,35.33
2019-04-26T03:32:22.564Z,32.60
2019-04-26T03:35:18.221Z,30.40
2019-04-26T03:38:16.705Z,32.23
2019-04-26T03:41:05.845Z,32.07
2019-04-26T03:43:50.607Z,28.97
2019-04-26T03:46:43.077Z,28.33
2019-04-26T03:50:12.124Z,27.90
2019-04-26T03:53:08.203Z,24.20
2019-04-26T03:56:24.929Z,23.97
2019-04-26T03:59:06.749Z,28.70
2019-04-26T04:01:46.282Z,28.07
2019-04-26T04:04:37.082Z,27.33
2019-04-26T04:07:10.441Z,25.33
2019-04-26T04:09:51.158Z,23.93
2019-04-26T04:12:37.816Z,28.80
2019-04-26T04:15:17.393Z,24.10
2019-04-26T04:17:55.398Z,25.13
2019-04-26T04:21:03.762Z,25.13
2019-04-26T04:23:53.731Z,20.77
2019-04-26T04:26:39.095Z,41.87
2019-04-26T04:29:50.503Z,25.63
2019-04-26T04:32:28.101Z,26.73
2019-04-26T04:35:01.098Z,26.63
2019-04-26T04:37:33.936Z,22.60
2019-04-26T04:40:22.972Z,24.20
2019-04-26T04:43:29.573Z,24.77
2019-04-26T04:46:42.033Z,24.90
2019-04-26T04:49:31.670Z,28.30
2019-04-26T04:52:38.905Z,27.17
2019-04-26T04:55:15.240Z,24.43
2019-04-26T04:58:10.362Z,26.67
2019-04-26T05:01:32.019Z,23.40
2019-04-26T05:04:10.968Z,22.30
2019-04-26T05:07:25.653Z,25.40
2019-04-26T05:10:10.874Z,26.93
2019-04-26T05:13:10.456Z,25.60
2019-04-26T05:16:16.905Z,23.23
2019-04-26T05:19:36.151Z,25.00
2019-04-26T05:22:40.822Z,24.20
2019-04-26T05:25:56.902Z,24.93
2019-04-26T05:28:38.147Z,25.30
2019-04-26T05:31:36.996Z,28.40
2019-04-26T05:34:47.944Z,21.33
2019-04-26T05:37:39.703Z,27.87
2019-04-26T05:40:45.525Z,28.07
2019-04-26T05:43:45.128Z,24.07
2019-04-26T05:47:14.274Z,28.97
2019-04-26T05:50:19.967Z,26.33
2019-04-26T05:53:34.165Z,25.87
2019-04-26T05:56:43.645Z,26.20
2019-04-26T05:59:25.118Z,30.03
2019-04-26T06:02:34.291Z,23.57
2019-04-26T06:05:40.865Z,26.73
2019-04-26T06:08:51.200Z,32.80
2019-04-26T06:11:33.551Z,29.50
2019-04-26T06:14:56.807Z,25.77
2019-04-26T06:18:15.223Z,22.67
2019-04-26T06:20:57.714Z,23.00
2019-04-26T06:23:58.061Z,23.07
2019-04-26T06:27:14.364Z,19.40
2019-04-26T06:30:07.928Z,30.47
2019-04-26T06:33:00.383Z,24.93
2019-04-26T06:35:27.486Z,24.37
2019-04-26T06:38:55.967Z,31.67
2019-04-26T06:42:01.418Z,19.87
2019-04-26T06:44:40.054Z,22.10
2019-04-26T06:47:24.581Z,18.93
2019-04-26T06:50:15.042Z,24.53
2019-04-26T06:52:52.923Z,25.37
2019-04-26T06:55:35.883Z,23.77
2019-04-26T06:58:37.478Z,23.37
2019-04-26T07:01:28.314Z,29.97
2019-04-26T07:04:59.145Z,22.30
2019-04-26T07:08:05.160Z,23.27
2019-04-26T07:11:02.731Z,20.33
2019-04-26T07:14:12.496Z,20.80
2019-04-26T07:16:53.104Z,20.67
2019-04-26T07:20:08.870Z,25.50
2019-04-26T07:23:44.507Z,24.30
2019-04-26T07:27:08.963Z,17.53
2019-04-26T07:30:01.900Z,20.20
2019-04-26T07:33:13.141Z,20.03
2019-04-26T07:35:59.358Z,24.07
2019-04-26T07:39:33.755Z,20.90
2019-04-26T07:42:55.776Z,21.37
2019-04-26T07:45:53.525Z,18.97
2019-04-26T07:49:04.189Z,26.20
2019-04-26T07:52:15.841Z,20.83
2019-04-26T07:55:32.400Z,25.47
2019-04-26T07:58:38.107Z,22.63
2019-04-26T08:01:50.476Z,28.63
2019-04-26T08:04:29.597Z,23.47
2019-04-26T08:07:11.924Z,21.83
2019-04-26T08:09:59.202Z,23.53
2019-04-26T08:12:21.158Z,24.07
2019-04-26T08:15:19.101Z,18.07
2019-04-26T08:18:06.657Z,22.47
2019-04-26T08:21:02.404Z,22.10
2019-04-26T08:23:42.028Z,17.27
2019-04-26T08:26:15.522Z,20.20
2019-04-26T08:28:48.162Z,19.20
2019-04-26T08:31:24.322Z,17.73
2019-04-26T08:34:02.096Z,19.63
2019-04-26T08:36:37.297Z,20.27
2019-04-26T08:39:15.929Z,19.40
2019-04-26T08:41:48.625Z,22.70
2019-04-26T08:44:30.170Z,28.03
2019-04-26T08:47:14.241Z,21.33
2019-04-26T08:50:00.134Z,18.70
2019-04-26T08:52:34.051Z,21.50
2019-04-26T08:55:07.649Z,19.37
2019-04-26T08:57:39.715Z,25.27
2019-04-26T09:00:27.193Z,18.73
2019-04-26T09:03:12.193Z,20.03
2019-04-26T09:05:59.504Z,17.03
2019-04-26T09:08:33.479Z,19.10
2019-04-26T09:11:05.860Z,18.10
2019-04-26T09:13:39.468Z,18.33
2019-04-26T09:16:18.599Z,17.33
2019-04-26T09:18:54.329Z,21.30
2019-04-26T09:21:42.354Z,13.57
2019-04-26T09:24:24.948Z,17.80
2019-04-26T09:27:01.769Z,22.20
2019-04-26T09:29:48.962Z,14.80
2019-04-26T09:32:28.013Z,16.83
2019-04-26T09:34:56.608Z,19.63
2019-04-26T09:37:26.215Z,20.17
2019-04-26T09:40:09.400Z,20.77
2019-04-26T09:42:43.911Z,18.53
2019-04-26T09:45:35.936Z,20.43
2019-04-26T09:48:11.478Z,20.50
2019-04-26T09:50:44.157Z,17.63
2019-04-26T09:53:13.718Z,18.80
2019-04-26T09:55:43.467Z,15.43
2019-04-26T09:58:14.269Z,16.73
2019-04-26T10:00:48.477Z,16.80
2019-04-26T10:03:15.954Z,15.73
2019-04-26T10:05:45.697Z,14.57
2019-04-26T10:08:15.396Z,16.60
2019-04-26T10:10:45.388Z,15.97
2019-04-26T10:13:33.168Z,17.77
2019-04-26T10:16:21.656Z,21.07
2019-04-26T10:18:59.450Z,15.73
2019-04-26T10:21:29.435Z,14.73
2019-04-26T10:23:59.084Z,15.63
2019-04-26T10:26:29.918Z,12.70
2019-04-26T10:28:59.899Z,16.77
2019-04-26T10:31:29.668Z,20.20
2019-04-26T10:33:59.512Z,16.83
2019-04-26T10:36:30.131Z,18.80
2019-04-26T10:39:01.916Z,16.43
2019-04-26T10:41:31.456Z,13.10
2019-04-26T10:44:04.710Z,15.27
2019-04-26T10:46:34.324Z,14.30
2019-04-26T10:49:25.997Z,17.33
2019-04-26T10:51:55.593Z,18.57
2019-04-26T10:54:25.225Z,16.53
2019-04-26T10:57:01.260Z,10.90
2019-04-26T10:59:39.895Z,16.33
2019-04-26T11:02:11.649Z,27.07
2019-04-26T11:04:42.845Z,19.83
2019-04-26T11:07:14.874Z,13.77
2019-04-26T11:09:44.778Z,22.20
2019-04-26T11:12:17.155Z,22.30
2019-04-26T11:14:48.191Z,12.00
2019-04-26T11:17:18.050Z,14.53
2019-04-26T11:19:47.777Z,15.10
2019-04-26T11:22:28.586Z,12.43
2019-04-26T11:24:50.112Z,13.57
2019-04-26T11:27:23.350Z,14.63
2019-04-26T11:29:53.783Z,10.57
2019-04-26T11:32:23.670Z,13.57
2019-04-26T11:34:54.592Z,13.33
2019-04-26T11:37:24.920Z,9.70
2019-04-26T11:39:55.644Z,15.07
2019-04-26T11:42:27.551Z,17.37
2019-04-26T11:45:05.950Z,16.37
2019-04-26T11:47:28.480Z,14.77
2019-04-26T11:49:58.385Z,12.67
2019-04-26T11:52:28.062Z,19.93
2019-04-26T11:54:57.745Z,16.10
2019-04-26T11:57:27.436Z,15.97
2019-04-26T11:59:57.222Z,8.97
2019-04-26T12:02:27.117Z,11.60
2019-04-26T12:05:14.229Z,17.43
2019-04-26T12:07:53.487Z,12.10
2019-04-26T12:10:23.174Z,8.67
2019-04-26T12:13:05.145Z,23.53
2019-04-26T12:15:30.296Z,13.70
2019-04-26T12:17:58.782Z,13.17
2019-04-26T12:20:28.483Z,10.17
2019-04-26T12:22:58.222Z,12.07
2019-04-26T12:25:30.929Z,14.70
2019-04-26T12:28:01.841Z,8.07
2019-04-26T12:30:31.109Z,15.67
2019-04-26T12:33:01.186Z,9.83
2019-04-26T12:35:30.773Z,25.17
2019-04-26T12:38:03.389Z,13.73
2019-04-26T12:40:35.573Z,11.20
2019-04-26T12:43:08.061Z,6.73
2019-04-26T12:45:54.356Z,8.17
2019-04-26T12:48:24.520Z,9.90
2019-04-26T12:50:54.598Z,7.00
2019-04-26T12:53:26.844Z,11.97
2019-04-26T12:55:58.350Z,8.90
2019-04-26T12:58:32.156Z,7.43
2019-04-26T13:01:02.172Z,7.63
2019-04-26T13:03:31.894Z,8.80
2019-04-26T13:06:01.849Z,8.33
2019-04-26T13:08:31.450Z,9.83
2019-04-26T13:11:17.011Z,8.10
2019-04-26T13:14:12.528Z,11.20
2019-04-26T13:16:51.020Z,9.10
2019-04-26T13:19:21.047Z,9.03
2019-04-26T13:21:50.742Z,6.70
2019-04-26T13:24:20.672Z,7.40
2019-04-26T13:26:50.502Z,6.57
2019-04-26T13:29:21.309Z,6.30
2019-04-26T13:31:50.835Z,7.67
2019-04-26T13:34:20.739Z,10.07
2019-04-26T13:36:50.502Z,6.97
2019-04-26T13:39:22.545Z,11.27
2019-04-26T13:42:02.108Z,4.97
2019-04-26T13:44:41.157Z,7.37
2019-04-26T13:47:28.142Z,16.73
2019-04-26T13:50:16.696Z,6.57
2019-04-26T13:52:46.702Z,12.50
2019-04-26T13:55:16.346Z,5.60
2019-04-26T13:57:46.219Z,7.70
2019-04-26T14:00:22.638Z,8.13
2019-04-26T14:02:52.361Z,6.50
2019-04-26T14:05:22.750Z,10.03
2019-04-26T14:07:52.519Z,6.77
2019-04-26T14:10:23.423Z,7.57
2019-04-26T14:12:53.004Z,12.47
2019-04-26T14:15:22.597Z,10.50
2019-04-26T14:17:52.133Z,11.90
2019-04-26T14:20:23.380Z,9.30
2019-04-26T14:23:05.830Z,11.17
2019-04-26T14:25:50.652Z,6.93
2019-04-26T14:28:20.479Z,8.40
2019-04-26T14:30:52.406Z,11.73
2019-04-26T14:33:22.125Z,8.17
2019-04-26T14:35:52.180Z,14.27
2019-04-26T14:38:28.076Z,9.10
2019-04-26T14:41:03.727Z,8.90
2019-04-26T14:43:24.810Z,10.00
2019-04-26T14:45:56.171Z,15.40
2019-04-26T14:48:35.779Z,11.37
2019-04-26T14:51:07.470Z,11.07
2019-04-26T14:53:32.176Z,23.07
2019-04-26T14:56:00.345Z,11.30
2019-04-26T14:58:30.610Z,12.27
2019-04-26T15:01:03.262Z,13.80
2019-04-26T15:03:46.323Z,10.67
2019-04-26T15:06:27.956Z,10.90
2019-04-26T15:08:57.682Z,12.53
2019-04-26T15:11:32.186Z,11.00
2019-04-26T15:14:03.215Z,8.67
2019-04-26T15:16:32.952Z,11.37
2019-04-26T15:19:02.730Z,12.67
2019-04-26T15:21:34.397Z,12.73
2019-04-26T15:24:05.050Z,13.07
2019-04-26T15:26:36.518Z,14.83
2019-04-26T15:29:05.952Z,20.10
2019-04-26T15:31:35.899Z,19.17
2019-04-26T15:34:05.740Z,13.20
2019-04-26T15:36:36.628Z,19.90
2019-04-26T15:39:19.860Z,11.00
2019-04-26T15:42:03.888Z,12.70
2019-04-26T15:45:04.465Z,10.80
2019-04-26T15:47:52.427Z,9.53
2019-04-26T15:50:27.094Z,12.30
2019-04-26T15:52:56.853Z,12.33
2019-04-26T15:55:26.722Z,14.80
2019-04-26T15:57:56.339Z,11.73
2019-04-26T16:00:28.377Z,10.87
2019-04-26T16:03:03.047Z,12.93
2019-04-26T16:05:31.283Z,12.73
2019-04-26T16:08:04.465Z,16.53
2019-04-26T16:10:34.743Z,18.17
2019-04-26T16:13:18.223Z,18.23
2019-04-26T16:15:37.536Z,13.87
2019-04-26T16:18:10.543Z,20.10
2019-04-26T16:20:42.875Z,24.67
2019-04-26T16:23:13.409Z,14.67
2019-04-26T16:25:44.743Z,20.50
2019-04-26T16:28:54.107Z,18.73
2019-04-26T16:31:37.132Z,18.70
2019-04-26T16:34:10.816Z,18.60
2019-04-26T16:36:45.026Z,21.53
2019-04-26T16:39:13.266Z,21.20
2019-04-26T16:41:45.495Z,17.33
2019-04-26T16:44:19.174Z,14.57
2019-04-26T16:46:53.929Z,20.03
2019-04-26T16:49:19.798Z,21.13
2019-04-26T16:51:54.486Z,18.13
2019-04-26T16:54:22.835Z,19.33
2019-04-26T16:56:52.884Z,16.97
2019-04-26T16:59:26.590Z,17.60
2019-04-26T17:01:53.988Z,18.20
2019-04-26T17:04:29.077Z,19.37
2019-04-26T17:06:55.129Z,16.80
2019-04-26T17:09:29.640Z,18.40
2019-04-26T17:11:56.538Z,22.47
2019-04-26T17:14:26.370Z,15.67
2019-04-26T17:16:55.979Z,22.00
2019-04-26T17:19:25.637Z,18.27
2019-04-26T17:22:43.682Z,18.23
2019-04-26T17:25:24.344Z,18.07
2019-04-26T17:27:53.472Z,18.93
2019-04-26T17:30:25.118Z,21.57
2019-04-26T17:32:55.805Z,22.77
2019-04-26T17:35:25.718Z,21.03
2019-04-26T17:37:57.375Z,20.90
2019-04-26T17:40:30.268Z,18.40
2019-04-26T17:42:58.415Z,18.47
2019-04-26T17:45:28.176Z,19.40
2019-04-26T17:47:58.174Z,18.57
2019-04-26T17:50:27.749Z,19.37
2019-04-26T17:52:57.497Z,16.17
2019-04-26T17:55:27.215Z,24.73
2019-04-26T17:58:11.479Z,21.80
2019-04-26T18:00:30.085Z,18.80
2019-04-26T18:03:01.488Z,20.87
2019-04-26T18:05:42.009Z,16.90
2019-04-26T18:08:30.415Z,17.60
2019-04-26T18:10:41.393Z,19.93
2019-04-26T18:13:11.261Z,19.30
2019-04-26T18:15:39.974Z,20.13
2019-04-26T18:18:42.937Z,23.00
2019-04-26T18:21:49.705Z,16.33
2019-04-26T18:24:17.996Z,19.87
2019-04-26T18:26:52.243Z,19.93
2019-04-26T18:29:25.206Z,17.40
2019-04-26T18:31:53.585Z,20.43
2019-04-26T18:34:23.324Z,19.37
2019-04-26T18:36:52.867Z,15.53
2019-04-26T18:39:26.311Z,14.80
2019-04-26T18:41:54.149Z,18.73
2019-04-26T18:44:35.812Z,15.87
2019-04-26T18:47:14.740Z,17.70
2019-04-26T18:49:44.465Z,20.10
2019-04-26T18:52:14.192Z,19.67
2019-04-26T18:55:16.284Z,19.20
2019-04-26T18:57:53.962Z,18.10
2019-04-26T19:00:28.814Z,18.90
2019-04-26T19:02:59.867Z,21.50
2019-04-26T19:05:30.051Z,19.53
2019-04-26T19:07:59.645Z,20.63
2019-04-26T19:10:31.604Z,23.37
2019-04-26T19:13:07.432Z,16.77
2019-04-26T19:15:55.984Z,23.10
2019-04-26T19:18:54.120Z,18.23
2019-04-26T19:21:27.903Z,17.90
2019-04-26T19:24:05.878Z,16.40
2019-04-26T19:26:34.867Z,21.27
2019-04-26T19:29:09.910Z,21.77
2019-04-26T19:31:34.255Z,17.30
2019-04-26T19:34:03.832Z,19.50
2019-04-26T19:36:33.692Z,17.23
2019-04-26T19:39:03.630Z,13.43
2019-04-26T19:41:34.793Z,14.70
2019-04-26T19:44:04.635Z,13.60
2019-04-26T19:46:44.344Z,15.73
2019-04-26T19:49:36.786Z,12.03
2019-04-26T19:52:19.251Z,10.93
2019-04-26T19:55:16.778Z,11.07
2019-04-26T19:58:05.246Z,11.40
2019-04-26T20:00:38.534Z,9.57
2019-04-26T20:03:08.477Z,7.77
2019-04-26T20:05:40.577Z,6.73
2019-04-26T20:08:09.350Z,6.40
2019-04-26T20:10:40.690Z,9.47
2019-04-26T20:13:15.042Z,6.23
2019-04-26T20:15:42.502Z,7.23
2019-04-26T20:18:12.381Z,8.00
2019-04-26T20:20:41.933Z,9.77
2019-04-26T20:23:12.361Z,6.80
2019-04-26T20:25:42.110Z,8.27
2019-04-26T20:28:12.202Z,8.23
2019-04-26T20:31:08.924Z,9.13
2019-04-26T20:33:38.773Z,6.57
2019-04-26T20:36:08.454Z,7.70
2019-04-26T20:38:43.791Z,6.40
2019-04-26T20:41:13.162Z,11.30
2019-04-26T20:43:52.327Z,5.77
2019-04-26T20:46:16.085Z,5.37
2019-04-26T20:48:45.693Z,9.43
2019-04-26T20:51:17.997Z,5.83
2019-04-26T20:53:46.536Z,5.37
2019-04-26T20:56:18.616Z,7.70
2019-04-26T20:58:47.690Z,8.87
2019-04-26T21:01:17.496Z,9.03
2019-04-26T21:03:47.130Z,6.23
2019-04-26T21:06:16.673Z,6.23
2019-04-26T21:08:46.233Z,5.77
2019-04-26T21:11:15.866Z,6.57
2019-04-26T21:13:45.397Z,4.53
2019-04-26T21:16:15.724Z,7.77
2019-04-26T21:18:45.433Z,9.33
2019-04-26T21:21:16.231Z,7.93
2019-04-26T21:23:48.022Z,5.40
2019-04-26T21:26:36.559Z,9.27
2019-04-26T21:29:20.295Z,5.53
2019-04-26T21:32:12.440Z,6.90
2019-04-26T21:34:46.448Z,6.10
2019-04-26T21:37:28.086Z,4.43
2019-04-26T21:40:16.896Z,7.07
2019-04-26T21:42:45.320Z,8.50
2019-04-26T21:45:15.350Z,6.10
2019-04-26T21:47:45.003Z,6.23
2019-04-26T21:50:16.215Z,6.53
2019-04-26T21:52:45.849Z,5.30
2019-04-26T21:55:16.685Z,7.83
2019-04-26T21:57:46.464Z,7.20
2019-04-26T22:00:36.524Z,7.57
2019-04-26T22:03:07.872Z,6.47
2019-04-26T22:05:37.736Z,9.30
2019-04-26T22:08:07.467Z,6.83
2019-04-26T22:10:44.547Z,7.50
2019-04-26T22:13:19.228Z,9.63
2019-04-26T22:16:30.653Z,12.13
2019-04-26T22:19:08.724Z,9.23
2019-04-26T22:22:05.777Z,12.33
2019-04-26T22:24:34.421Z,11.73
2019-04-26T22:27:04.128Z,14.03
2019-04-26T22:29:33.680Z,13.13
2019-04-26T22:32:03.815Z,13.47
2019-04-26T22:34:37.305Z,12.87
2019-04-26T22:37:11.099Z,12.30
2019-04-26T22:39:39.735Z,16.03
2019-04-26T22:42:08.890Z,15.23
2019-04-26T22:44:57.347Z,15.37
2019-04-26T22:47:40.877Z,15.20
2019-04-26T22:50:07.101Z,15.67
2019-04-26T22:52:36.753Z,14.17
2019-04-26T22:55:07.145Z,14.87
2019-04-26T22:57:37.037Z,10.77
2019-04-26T23:00:08.534Z,15.13
2019-04-26T23:02:38.208Z,11.73
2019-04-26T23:05:07.939Z,14.47
2019-04-26T23:07:37.562Z,15.00
2019-04-26T23:10:08.457Z,19.40
2019-04-26T23:13:04.488Z,12.50
2019-04-26T23:15:48.407Z,15.17
2019-04-26T23:18:38.750Z,14.40
2019-04-26T23:21:14.955Z,11.73
2019-04-26T23:23:44.314Z,13.20
2019-04-26T23:26:14.417Z,14.40
2019-04-26T23:28:44.055Z,14.27
2019-04-26T23:31:13.620Z,14.23
2019-04-26T23:33:43.213Z,12.40
2019-04-26T23:36:13.605Z,12.97
2019-04-26T23:38:43.915Z,13.03
2019-04-26T23:41:14.192Z,13.03
2019-04-26T23:43:43.869Z,11.83
2019-04-26T23:46:14.689Z,14.50
2019-04-26T23:48:48.834Z,18.57
2019-04-26T23:51:15.968Z,13.70
2019-04-26T23:53:45.580Z,14.87
2019-04-26T23:56:21.694Z,16.23
2019-04-26T23:58:46.401Z,16.43
